sensor_id;sensor_type;location;lat;lon;timestamp;P1;durP1;ratioP1;P2;durP2;ratioP2
20697;SDS011;10508;50.956;4.640;2022-11-15T00:00:47;24.67;;;10.85;;
20697;SDS011;10508;50.956;4.640;2022-11-15T00:03:13;19.95;;;9.82;;
20697;SDS011;10508;50.956;4.640;2022-11-15T00:05:40;30.65;;;10.98;;
20697;SDS011;10508;50.956;4.640;2022-11-15T00:08:05;24.02;;;10.13;;
20697;SDS011;10508;50.956;4.640;2022-11-15T00:10:31;23.75;;;10.25;;
20697;SDS011;10508;50.956;4.640;2022-11-15T00:12:57;22.15;;;10.20;;
20697;SDS011;10508;50.956;4.640;2022-11-15T00:15:22;24.23;;;11.40;;
20697;SDS011;10508;50.956;4.640;2022-11-15T00:17:48;20.95;;;10.52;;
20697;SDS011;10508;50.956;4.640;2022-11-15T00:20:14;21.42;;;10.25;;
20697;SDS011;10508;50.956;4.640;2022-11-15T00:22:41;19.88;;;9.05;;
20697;SDS011;10508;50.956;4.640;2022-11-15T00:25:06;20.90;;;9.80;;
20697;SDS011;10508;50.956;4.640;2022-11-15T00:27:32;24.00;;;9.98;;
20697;SDS011;10508;50.956;4.640;2022-11-15T00:29:58;21.33;;;10.88;;
20697;SDS011;10508;50.956;4.640;2022-11-15T00:32:23;19.85;;;9.98;;
20697;SDS011;10508;50.956;4.640;2022-11-15T00:35:07;22.95;;;10.40;;
20697;SDS011;10508;50.956;4.640;2022-11-15T00:37:32;23.25;;;10.40;;
20697;SDS011;10508;50.956;4.640;2022-11-15T00:39:58;20.65;;;10.15;;
20697;SDS011;10508;50.956;4.640;2022-11-15T00:42:24;17.85;;;9.60;;
20697;SDS011;10508;50.956;4.640;2022-11-15T00:44:55;19.15;;;8.98;;
20697;SDS011;10508;50.956;4.640;2022-11-15T00:47:20;17.77;;;9.27;;
20697;SDS011;10508;50.956;4.640;2022-11-15T00:49:46;22.13;;;10.55;;
20697;SDS011;10508;50.956;4.640;2022-11-15T00:52:11;26.55;;;10.57;;
20697;SDS011;10508;50.956;4.640;2022-11-15T00:54:37;20.63;;;10.68;;
20697;SDS011;10508;50.956;4.640;2022-11-15T00:57:03;26.05;;;10.60;;
20697;SDS011;10508;50.956;4.640;2022-11-15T00:59:29;20.55;;;10.32;;
20697;SDS011;10508;50.956;4.640;2022-11-15T01:01:54;18.63;;;9.35;;
20697;SDS011;10508;50.956;4.640;2022-11-15T01:04:20;23.77;;;10.45;;
20697;SDS011;10508;50.956;4.640;2022-11-15T01:06:45;19.58;;;9.85;;
20697;SDS011;10508;50.956;4.640;2022-11-15T01:09:11;21.38;;;9.82;;
20697;SDS011;10508;50.956;4.640;2022-11-15T01:11:38;23.35;;;11.05;;
20697;SDS011;10508;50.956;4.640;2022-11-15T01:14:04;23.50;;;10.35;;
20697;SDS011;10508;50.956;4.640;2022-11-15T01:16:29;21.83;;;9.23;;
20697;SDS011;10508;50.956;4.640;2022-11-15T01:18:55;20.00;;;9.32;;
20697;SDS011;10508;50.956;4.640;2022-11-15T01:21:21;20.70;;;9.75;;
20697;SDS011;10508;50.956;4.640;2022-11-15T01:23:46;28.65;;;11.57;;
20697;SDS011;10508;50.956;4.640;2022-11-15T01:26:13;20.58;;;10.05;;
20697;SDS011;10508;50.956;4.640;2022-11-15T01:28:40;25.30;;;10.70;;
20697;SDS011;10508;50.956;4.640;2022-11-15T01:31:10;30.85;;;11.77;;
20697;SDS011;10508;50.956;4.640;2022-11-15T01:33:38;26.80;;;10.90;;
20697;SDS011;10508;50.956;4.640;2022-11-15T01:36:04;29.27;;;10.68;;
20697;SDS011;10508;50.956;4.640;2022-11-15T01:38:32;21.40;;;10.13;;
20697;SDS011;10508;50.956;4.640;2022-11-15T01:40:58;24.13;;;11.10;;
20697;SDS011;10508;50.956;4.640;2022-11-15T01:43:31;24.42;;;10.82;;
20697;SDS011;10508;50.956;4.640;2022-11-15T01:45:59;26.50;;;10.90;;
20697;SDS011;10508;50.956;4.640;2022-11-15T01:48:32;21.27;;;10.30;;
20697;SDS011;10508;50.956;4.640;2022-11-15T01:50:59;25.08;;;11.13;;
20697;SDS011;10508;50.956;4.640;2022-11-15T01:53:27;25.77;;;12.05;;
20697;SDS011;10508;50.956;4.640;2022-11-15T01:55:56;22.95;;;11.18;;
20697;SDS011;10508;50.956;4.640;2022-11-15T01:58:23;30.95;;;13.00;;
20697;SDS011;10508;50.956;4.640;2022-11-15T02:00:49;37.42;;;12.65;;
20697;SDS011;10508;50.956;4.640;2022-11-15T02:03:16;28.35;;;12.63;;
20697;SDS011;10508;50.956;4.640;2022-11-15T02:05:42;27.40;;;11.90;;
20697;SDS011;10508;50.956;4.640;2022-11-15T02:08:09;27.77;;;11.95;;
20697;SDS011;10508;50.956;4.640;2022-11-15T02:10:44;30.17;;;12.90;;
20697;SDS011;10508;50.956;4.640;2022-11-15T02:13:11;24.95;;;13.02;;
20697;SDS011;10508;50.956;4.640;2022-11-15T02:15:40;31.20;;;12.13;;
20697;SDS011;10508;50.956;4.640;2022-11-15T02:20:55;23.83;;;11.85;;
20697;SDS011;10508;50.956;4.640;2022-11-15T02:23:37;34.05;;;11.85;;
20697;SDS011;10508;50.956;4.640;2022-11-15T02:27:28;25.95;;;10.30;;
20697;SDS011;10508;50.956;4.640;2022-11-15T02:32:27;25.25;;;11.25;;
20697;SDS011;10508;50.956;4.640;2022-11-15T02:40:44;26.95;;;11.40;;
20697;SDS011;10508;50.956;4.640;2022-11-15T02:43:19;25.27;;;11.50;;
20697;SDS011;10508;50.956;4.640;2022-11-15T02:46:14;28.42;;;11.48;;
20697;SDS011;10508;50.956;4.640;2022-11-15T02:49:37;24.50;;;10.63;;
20697;SDS011;10508;50.956;4.640;2022-11-15T02:52:05;21.83;;;10.93;;
20697;SDS011;10508;50.956;4.640;2022-11-15T02:54:31;22.25;;;9.73;;
20697;SDS011;10508;50.956;4.640;2022-11-15T02:57:07;21.88;;;10.18;;
20697;SDS011;10508;50.956;4.640;2022-11-15T03:00:21;22.88;;;9.50;;
20697;SDS011;10508;50.956;4.640;2022-11-15T03:05:41;23.40;;;10.15;;
20697;SDS011;10508;50.956;4.640;2022-11-15T03:11:39;24.20;;;9.77;;
20697;SDS011;10508;50.956;4.640;2022-11-15T03:14:19;21.38;;;9.57;;
20697;SDS011;10508;50.956;4.640;2022-11-15T03:22:10;18.38;;;8.95;;
20697;SDS011;10508;50.956;4.640;2022-11-15T03:24:43;22.17;;;10.25;;
20697;SDS011;10508;50.956;4.640;2022-11-15T03:27:12;25.58;;;10.23;;
20697;SDS011;10508;50.956;4.640;2022-11-15T03:29:50;24.48;;;10.25;;
20697;SDS011;10508;50.956;4.640;2022-11-15T03:32:21;20.40;;;9.73;;
20697;SDS011;10508;50.956;4.640;2022-11-15T03:35:15;24.08;;;9.75;;
20697;SDS011;10508;50.956;4.640;2022-11-15T03:37:53;26.65;;;9.48;;
20697;SDS011;10508;50.956;4.640;2022-11-15T03:40:42;22.17;;;8.75;;
20697;SDS011;10508;50.956;4.640;2022-11-15T03:45:56;18.00;;;9.43;;
20697;SDS011;10508;50.956;4.640;2022-11-15T03:48:27;22.88;;;9.93;;
20697;SDS011;10508;50.956;4.640;2022-11-15T03:50:58;20.05;;;9.07;;
20697;SDS011;10508;50.956;4.640;2022-11-15T03:53:24;27.00;;;9.07;;
20697;SDS011;10508;50.956;4.640;2022-11-15T03:55:50;20.67;;;8.82;;
20697;SDS011;10508;50.956;4.640;2022-11-15T03:58:15;19.73;;;9.52;;
20697;SDS011;10508;50.956;4.640;2022-11-15T04:00:41;18.67;;;8.65;;
20697;SDS011;10508;50.956;4.640;2022-11-15T04:03:07;21.50;;;9.55;;
20697;SDS011;10508;50.956;4.640;2022-11-15T04:05:33;16.45;;;9.05;;
20697;SDS011;10508;50.956;4.640;2022-11-15T04:08:01;23.23;;;9.68;;
20697;SDS011;10508;50.956;4.640;2022-11-15T04:10:27;17.88;;;8.10;;
20697;SDS011;10508;50.956;4.640;2022-11-15T04:12:53;18.20;;;8.40;;
20697;SDS011;10508;50.956;4.640;2022-11-15T04:15:21;13.82;;;8.18;;
20697;SDS011;10508;50.956;4.640;2022-11-15T04:17:51;17.35;;;8.38;;
20697;SDS011;10508;50.956;4.640;2022-11-15T04:20:28;14.25;;;6.20;;
20697;SDS011;10508;50.956;4.640;2022-11-15T04:23:15;17.90;;;7.65;;
20697;SDS011;10508;50.956;4.640;2022-11-15T04:26:01;14.38;;;6.68;;
20697;SDS011;10508;50.956;4.640;2022-11-15T04:28:32;13.98;;;6.57;;
20697;SDS011;10508;50.956;4.640;2022-11-15T04:30:58;15.10;;;6.20;;
20697;SDS011;10508;50.956;4.640;2022-11-15T04:33:24;11.60;;;5.53;;
20697;SDS011;10508;50.956;4.640;2022-11-15T04:35:50;9.10;;;5.00;;
20697;SDS011;10508;50.956;4.640;2022-11-15T04:38:34;17.58;;;6.15;;
20697;SDS011;10508;50.956;4.640;2022-11-15T04:41:01;8.98;;;4.65;;
20697;SDS011;10508;50.956;4.640;2022-11-15T04:43:27;12.50;;;5.03;;
20697;SDS011;10508;50.956;4.640;2022-11-15T04:45:53;11.25;;;4.60;;
20697;SDS011;10508;50.956;4.640;2022-11-15T04:48:18;9.90;;;4.45;;
20697;SDS011;10508;50.956;4.640;2022-11-15T04:50:44;10.43;;;4.28;;
20697;SDS011;10508;50.956;4.640;2022-11-15T04:53:12;9.77;;;4.68;;
20697;SDS011;10508;50.956;4.640;2022-11-15T04:55:37;14.07;;;4.57;;
20697;SDS011;10508;50.956;4.640;2022-11-15T04:58:03;9.45;;;4.43;;
20697;SDS011;10508;50.956;4.640;2022-11-15T05:00:29;9.32;;;4.57;;
20697;SDS011;10508;50.956;4.640;2022-11-15T05:02:55;12.68;;;5.20;;
20697;SDS011;10508;50.956;4.640;2022-11-15T05:05:40;9.25;;;4.18;;
20697;SDS011;10508;50.956;4.640;2022-11-15T05:08:05;9.32;;;4.38;;
20697;SDS011;10508;50.956;4.640;2022-11-15T05:10:31;10.27;;;4.88;;
20697;SDS011;10508;50.956;4.640;2022-11-15T05:12:57;8.77;;;4.88;;
20697;SDS011;10508;50.956;4.640;2022-11-15T05:15:22;8.75;;;4.28;;
20697;SDS011;10508;50.956;4.640;2022-11-15T05:17:48;9.45;;;5.38;;
20697;SDS011;10508;50.956;4.640;2022-11-15T05:20:13;11.15;;;5.22;;
20697;SDS011;10508;50.956;4.640;2022-11-15T05:22:39;10.98;;;5.00;;
20697;SDS011;10508;50.956;4.640;2022-11-15T05:25:05;11.30;;;5.88;;
20697;SDS011;10508;50.956;4.640;2022-11-15T05:27:32;11.18;;;4.55;;
20697;SDS011;10508;50.956;4.640;2022-11-15T05:29:58;10.63;;;5.03;;
20697;SDS011;10508;50.956;4.640;2022-11-15T05:32:23;13.23;;;4.90;;
20697;SDS011;10508;50.956;4.640;2022-11-15T05:34:49;9.57;;;3.67;;
20697;SDS011;10508;50.956;4.640;2022-11-15T05:37:15;9.68;;;3.97;;
20697;SDS011;10508;50.956;4.640;2022-11-15T05:39:41;11.55;;;4.28;;
20697;SDS011;10508;50.956;4.640;2022-11-15T05:44:35;8.07;;;4.00;;
20697;SDS011;10508;50.956;4.640;2022-11-15T05:47:03;6.70;;;3.70;;
20697;SDS011;10508;50.956;4.640;2022-11-15T05:49:31;12.75;;;4.03;;
20697;SDS011;10508;50.956;4.640;2022-11-15T05:51:59;10.93;;;3.47;;
20697;SDS011;10508;50.956;4.640;2022-11-15T05:54:25;12.13;;;4.38;;
20697;SDS011;10508;50.956;4.640;2022-11-15T05:56:51;7.38;;;3.65;;
20697;SDS011;10508;50.956;4.640;2022-11-15T05:59:17;8.90;;;4.05;;
20697;SDS011;10508;50.956;4.640;2022-11-15T06:01:43;10.43;;;4.30;;
20697;SDS011;10508;50.956;4.640;2022-11-15T06:04:09;9.38;;;4.20;;
20697;SDS011;10508;50.956;4.640;2022-11-15T06:06:35;15.57;;;4.20;;
20697;SDS011;10508;50.956;4.640;2022-11-15T06:09:00;9.35;;;3.97;;
20697;SDS011;10508;50.956;4.640;2022-11-15T06:11:26;10.38;;;4.35;;
20697;SDS011;10508;50.956;4.640;2022-11-15T06:13:51;8.38;;;4.18;;
20697;SDS011;10508;50.956;4.640;2022-11-15T06:16:17;8.60;;;3.92;;
20697;SDS011;10508;50.956;4.640;2022-11-15T06:18:43;13.40;;;4.85;;
20697;SDS011;10508;50.956;4.640;2022-11-15T06:21:08;6.30;;;3.55;;
20697;SDS011;10508;50.956;4.640;2022-11-15T06:23:34;9.23;;;3.25;;
20697;SDS011;10508;50.956;4.640;2022-11-15T06:26:00;10.13;;;4.10;;
20697;SDS011;10508;50.956;4.640;2022-11-15T06:28:33;8.13;;;3.72;;
20697;SDS011;10508;50.956;4.640;2022-11-15T06:31:05;13.07;;;5.22;;
20697;SDS011;10508;50.956;4.640;2022-11-15T06:33:32;12.55;;;4.30;;
20697;SDS011;10508;50.956;4.640;2022-11-15T06:36:02;9.18;;;4.50;;
20697;SDS011;10508;50.956;4.640;2022-11-15T06:38:29;6.60;;;3.70;;
20697;SDS011;10508;50.956;4.640;2022-11-15T06:40:55;10.60;;;4.20;;
20697;SDS011;10508;50.956;4.640;2022-11-15T06:43:30;9.13;;;4.78;;
20697;SDS011;10508;50.956;4.640;2022-11-15T06:45:57;8.57;;;4.22;;
20697;SDS011;10508;50.956;4.640;2022-11-15T06:48:24;11.63;;;5.35;;
20697;SDS011;10508;50.956;4.640;2022-11-15T06:50:53;7.50;;;3.97;;
20697;SDS011;10508;50.956;4.640;2022-11-15T06:53:21;11.13;;;4.82;;
20697;SDS011;10508;50.956;4.640;2022-11-15T06:55:47;12.27;;;4.70;;
20697;SDS011;10508;50.956;4.640;2022-11-15T06:58:13;10.38;;;4.35;;
20697;SDS011;10508;50.956;4.640;2022-11-15T07:00:39;13.77;;;4.07;;
20697;SDS011;10508;50.956;4.640;2022-11-15T07:03:05;8.10;;;4.15;;
20697;SDS011;10508;50.956;4.640;2022-11-15T07:05:31;10.23;;;4.88;;
20697;SDS011;10508;50.956;4.640;2022-11-15T07:07:57;11.98;;;4.90;;
20697;SDS011;10508;50.956;4.640;2022-11-15T07:10:23;6.50;;;4.00;;
20697;SDS011;10508;50.956;4.640;2022-11-15T07:12:50;11.80;;;4.35;;
20697;SDS011;10508;50.956;4.640;2022-11-15T07:15:17;10.43;;;4.38;;
20697;SDS011;10508;50.956;4.640;2022-11-15T07:17:44;8.60;;;4.38;;
20697;SDS011;10508;50.956;4.640;2022-11-15T07:20:10;11.57;;;4.75;;
20697;SDS011;10508;50.956;4.640;2022-11-15T07:22:35;11.45;;;5.45;;
20697;SDS011;10508;50.956;4.640;2022-11-15T07:25:01;9.60;;;5.20;;
20697;SDS011;10508;50.956;4.640;2022-11-15T07:27:27;17.15;;;5.63;;
20697;SDS011;10508;50.956;4.640;2022-11-15T07:29:52;19.75;;;5.30;;
20697;SDS011;10508;50.956;4.640;2022-11-15T07:32:18;24.55;;;5.50;;
20697;SDS011;10508;50.956;4.640;2022-11-15T07:34:43;12.18;;;4.80;;
20697;SDS011;10508;50.956;4.640;2022-11-15T07:37:10;8.43;;;4.68;;
20697;SDS011;10508;50.956;4.640;2022-11-15T07:39:36;12.43;;;4.50;;
20697;SDS011;10508;50.956;4.640;2022-11-15T07:42:02;14.73;;;4.72;;
20697;SDS011;10508;50.956;4.640;2022-11-15T07:44:46;14.43;;;4.63;;
20697;SDS011;10508;50.956;4.640;2022-11-15T07:47:12;11.43;;;5.30;;
20697;SDS011;10508;50.956;4.640;2022-11-15T07:49:37;8.90;;;4.18;;
20697;SDS011;10508;50.956;4.640;2022-11-15T07:52:03;18.05;;;5.03;;
20697;SDS011;10508;50.956;4.640;2022-11-15T07:54:29;9.63;;;4.38;;
20697;SDS011;10508;50.956;4.640;2022-11-15T07:56:54;10.25;;;4.13;;
20697;SDS011;10508;50.956;4.640;2022-11-15T07:59:20;23.55;;;5.40;;
20697;SDS011;10508;50.956;4.640;2022-11-15T08:01:45;10.75;;;4.03;;
20697;SDS011;10508;50.956;4.640;2022-11-15T08:04:11;8.88;;;4.20;;
20697;SDS011;10508;50.956;4.640;2022-11-15T08:06:37;8.70;;;4.15;;
20697;SDS011;10508;50.956;4.640;2022-11-15T08:09:03;6.15;;;3.45;;
20697;SDS011;10508;50.956;4.640;2022-11-15T08:11:28;6.60;;;3.35;;
20697;SDS011;10508;50.956;4.640;2022-11-15T08:13:54;7.72;;;3.47;;
20697;SDS011;10508;50.956;4.640;2022-11-15T08:16:20;7.78;;;2.80;;
20697;SDS011;10508;50.956;4.640;2022-11-15T08:18:46;16.17;;;3.05;;
20697;SDS011;10508;50.956;4.640;2022-11-15T08:21:12;8.05;;;2.78;;
20697;SDS011;10508;50.956;4.640;2022-11-15T08:23:42;7.53;;;2.65;;
20697;SDS011;10508;50.956;4.640;2022-11-15T08:26:08;5.35;;;2.38;;
20697;SDS011;10508;50.956;4.640;2022-11-15T08:28:34;6.07;;;2.20;;
20697;SDS011;10508;50.956;4.640;2022-11-15T08:30:59;4.90;;;2.35;;
20697;SDS011;10508;50.956;4.640;2022-11-15T08:33:25;4.05;;;1.70;;
20697;SDS011;10508;50.956;4.640;2022-11-15T08:35:51;24.52;;;2.47;;
20697;SDS011;10508;50.956;4.640;2022-11-15T08:38:16;3.00;;;1.40;;
20697;SDS011;10508;50.956;4.640;2022-11-15T08:40:42;9.43;;;1.60;;
20697;SDS011;10508;50.956;4.640;2022-11-15T08:43:08;13.70;;;2.40;;
20697;SDS011;10508;50.956;4.640;2022-11-15T08:45:34;7.07;;;1.88;;
20697;SDS011;10508;50.956;4.640;2022-11-15T08:48:02;4.65;;;2.08;;
20697;SDS011;10508;50.956;4.640;2022-11-15T08:50:28;2.95;;;1.48;;
20697;SDS011;10508;50.956;4.640;2022-11-15T08:52:54;6.82;;;2.28;;
20697;SDS011;10508;50.956;4.640;2022-11-15T08:55:20;4.95;;;1.25;;
20697;SDS011;10508;50.956;4.640;2022-11-15T08:57:46;6.45;;;1.65;;
20697;SDS011;10508;50.956;4.640;2022-11-15T09:00:12;12.93;;;1.98;;
20697;SDS011;10508;50.956;4.640;2022-11-15T09:02:38;2.65;;;1.10;;
20697;SDS011;10508;50.956;4.640;2022-11-15T09:05:05;1.83;;;0.98;;
20697;SDS011;10508;50.956;4.640;2022-11-15T09:07:31;4.00;;;1.00;;
20697;SDS011;10508;50.956;4.640;2022-11-15T09:09:57;7.28;;;1.98;;
20697;SDS011;10508;50.956;4.640;2022-11-15T09:12:23;7.07;;;1.73;;
20697;SDS011;10508;50.956;4.640;2022-11-15T09:14:49;7.45;;;1.50;;
20697;SDS011;10508;50.956;4.640;2022-11-15T09:17:15;1.95;;;1.15;;
20697;SDS011;10508;50.956;4.640;2022-11-15T09:19:41;2.30;;;0.70;;
20697;SDS011;10508;50.956;4.640;2022-11-15T09:22:07;2.83;;;0.82;;
20697;SDS011;10508;50.956;4.640;2022-11-15T09:24:33;4.18;;;0.90;;
20697;SDS011;10508;50.956;4.640;2022-11-15T09:26:59;16.38;;;2.00;;
20697;SDS011;10508;50.956;4.640;2022-11-15T09:29:25;6.72;;;1.05;;
20697;SDS011;10508;50.956;4.640;2022-11-15T09:31:54;15.60;;;1.45;;
20697;SDS011;10508;50.956;4.640;2022-11-15T09:34:19;5.10;;;0.90;;
20697;SDS011;10508;50.956;4.640;2022-11-15T09:36:46;9.70;;;1.30;;
20697;SDS011;10508;50.956;4.640;2022-11-15T09:39:11;4.63;;;1.00;;
20697;SDS011;10508;50.956;4.640;2022-11-15T09:49:11;2.65;;;0.77;;
20697;SDS011;10508;50.956;4.640;2022-11-15T09:51:40;5.75;;;0.90;;
20697;SDS011;10508;50.956;4.640;2022-11-15T09:54:19;2.55;;;0.70;;
20697;SDS011;10508;50.956;4.640;2022-11-15T09:57:09;2.90;;;0.40;;
20697;SDS011;10508;50.956;4.640;2022-11-15T10:05:16;2.05;;;0.60;;
20697;SDS011;10508;50.956;4.640;2022-11-15T10:13:13;2.42;;;0.70;;
20697;SDS011;10508;50.956;4.640;2022-11-15T10:15:45;3.10;;;0.55;;
20697;SDS011;10508;50.956;4.640;2022-11-15T10:18:17;1.60;;;0.82;;
20697;SDS011;10508;50.956;4.640;2022-11-15T10:23:16;5.97;;;0.95;;
20697;SDS011;10508;50.956;4.640;2022-11-15T10:25:44;6.10;;;1.40;;
20697;SDS011;10508;50.956;4.640;2022-11-15T10:28:52;4.32;;;0.63;;
20697;SDS011;10508;50.956;4.640;2022-11-15T10:30:59;14.73;;;1.55;;
20697;SDS011;10508;50.956;4.640;2022-11-15T10:39:10;4.30;;;0.68;;
20697;SDS011;10508;50.956;4.640;2022-11-15T10:44:41;3.53;;;0.65;;
20697;SDS011;10508;50.956;4.640;2022-11-15T10:46:41;4.65;;;0.90;;
20697;SDS011;10508;50.956;4.640;2022-11-15T10:49:15;4.75;;;0.68;;
20697;SDS011;10508;50.956;4.640;2022-11-15T10:51:55;2.75;;;0.82;;
20697;SDS011;10508;50.956;4.640;2022-11-15T10:54:41;2.88;;;0.68;;
20697;SDS011;10508;50.956;4.640;2022-11-15T10:57:32;9.02;;;0.93;;
20697;SDS011;10508;50.956;4.640;2022-11-15T11:02:40;3.10;;;0.70;;
20697;SDS011;10508;50.956;4.640;2022-11-15T11:10:52;5.18;;;0.90;;
20697;SDS011;10508;50.956;4.640;2022-11-15T11:13:25;4.80;;;0.68;;
20697;SDS011;10508;50.956;4.640;2022-11-15T11:15:55;3.15;;;0.80;;
20697;SDS011;10508;50.956;4.640;2022-11-15T11:27:25;3.17;;;0.68;;
20697;SDS011;10508;50.956;4.640;2022-11-15T11:30:08;3.30;;;0.77;;
20697;SDS011;10508;50.956;4.640;2022-11-15T11:33:16;6.45;;;1.02;;
20697;SDS011;10508;50.956;4.640;2022-11-15T11:44:24;5.88;;;0.73;;
20697;SDS011;10508;50.956;4.640;2022-11-15T11:47:11;3.80;;;1.20;;
20697;SDS011;10508;50.956;4.640;2022-11-15T11:49:45;8.52;;;1.08;;
20697;SDS011;10508;50.956;4.640;2022-11-15T11:52:31;3.90;;;1.13;;
20697;SDS011;10508;50.956;4.640;2022-11-15T12:14:53;4.80;;;0.95;;
20697;SDS011;10508;50.956;4.640;2022-11-15T12:17:23;4.65;;;1.15;;
20697;SDS011;10508;50.956;4.640;2022-11-15T12:20:00;1.35;;;0.55;;
20697;SDS011;10508;50.956;4.640;2022-11-15T12:26:20;2.83;;;0.80;;
20697;SDS011;10508;50.956;4.640;2022-11-15T12:38:56;2.90;;;0.82;;
20697;SDS011;10508;50.956;4.640;2022-11-15T12:41:30;6.75;;;0.93;;
20697;SDS011;10508;50.956;4.640;2022-11-15T12:43:56;2.15;;;0.80;;
20697;SDS011;10508;50.956;4.640;2022-11-15T12:48:59;5.22;;;0.80;;
20697;SDS011;10508;50.956;4.640;2022-11-15T12:57:22;1.60;;;0.70;;
20697;SDS011;10508;50.956;4.640;2022-11-15T12:59:58;11.85;;;1.00;;
20697;SDS011;10508;50.956;4.640;2022-11-15T13:02:33;7.75;;;1.00;;
20697;SDS011;10508;50.956;4.640;2022-11-15T13:17:50;0.80;;;0.63;;
20697;SDS011;10508;50.956;4.640;2022-11-15T13:20:28;5.30;;;0.85;;
20697;SDS011;10508;50.956;4.640;2022-11-15T13:30:36;3.17;;;0.75;;
20697;SDS011;10508;50.956;4.640;2022-11-15T13:33:45;3.05;;;0.75;;
20697;SDS011;10508;50.956;4.640;2022-11-15T13:35:56;5.45;;;0.80;;
20697;SDS011;10508;50.956;4.640;2022-11-15T13:40:49;1.75;;;0.68;;
20697;SDS011;10508;50.956;4.640;2022-11-15T13:48:41;3.05;;;1.00;;
20697;SDS011;10508;50.956;4.640;2022-11-15T13:51:18;1.10;;;0.70;;
20697;SDS011;10508;50.956;4.640;2022-11-15T13:53:54;1.27;;;0.43;;
20697;SDS011;10508;50.956;4.640;2022-11-15T13:56:24;4.32;;;0.90;;
20697;SDS011;10508;50.956;4.640;2022-11-15T13:58:51;3.72;;;0.75;;
20697;SDS011;10508;50.956;4.640;2022-11-15T14:01:19;3.65;;;0.70;;
20697;SDS011;10508;50.956;4.640;2022-11-15T14:03:47;4.72;;;0.68;;
20697;SDS011;10508;50.956;4.640;2022-11-15T14:06:16;2.47;;;1.02;;
20697;SDS011;10508;50.956;4.640;2022-11-15T14:09:04;3.33;;;0.77;;
20697;SDS011;10508;50.956;4.640;2022-11-15T14:11:36;3.33;;;0.77;;
20697;SDS011;10508;50.956;4.640;2022-11-15T14:14:08;0.63;;;0.57;;
20697;SDS011;10508;50.956;4.640;2022-11-15T14:19:06;6.10;;;1.10;;
20697;SDS011;10508;50.956;4.640;2022-11-15T14:21:34;7.75;;;1.45;;
20697;SDS011;10508;50.956;4.640;2022-11-15T14:24:17;4.13;;;0.88;;
20697;SDS011;10508;50.956;4.640;2022-11-15T14:26:44;2.10;;;0.82;;
20697;SDS011;10508;50.956;4.640;2022-11-15T14:29:23;7.57;;;0.77;;
20697;SDS011;10508;50.956;4.640;2022-11-15T14:31:53;2.47;;;0.77;;
20697;SDS011;10508;50.956;4.640;2022-11-15T14:34:36;14.85;;;1.90;;
20697;SDS011;10508;50.956;4.640;2022-11-15T14:37:02;8.70;;;1.20;;
20697;SDS011;10508;50.956;4.640;2022-11-15T14:39:27;4.68;;;1.02;;
20697;SDS011;10508;50.956;4.640;2022-11-15T14:41:53;3.17;;;0.93;;
20697;SDS011;10508;50.956;4.640;2022-11-15T14:44:18;3.30;;;1.13;;
20697;SDS011;10508;50.956;4.640;2022-11-15T14:46:45;5.65;;;0.88;;
20697;SDS011;10508;50.956;4.640;2022-11-15T14:49:11;3.42;;;1.33;;
20697;SDS011;10508;50.956;4.640;2022-11-15T14:51:37;0.88;;;0.55;;
20697;SDS011;10508;50.956;4.640;2022-11-15T14:54:03;3.85;;;1.17;;
20697;SDS011;10508;50.956;4.640;2022-11-15T14:56:29;3.80;;;1.23;;
20697;SDS011;10508;50.956;4.640;2022-11-15T14:58:54;1.67;;;1.00;;
20697;SDS011;10508;50.956;4.640;2022-11-15T15:01:21;1.77;;;0.70;;
20697;SDS011;10508;50.956;4.640;2022-11-15T15:03:50;4.63;;;1.23;;
20697;SDS011;10508;50.956;4.640;2022-11-15T15:06:23;1.70;;;0.90;;
20697;SDS011;10508;50.956;4.640;2022-11-15T15:08:49;2.05;;;1.00;;
20697;SDS011;10508;50.956;4.640;2022-11-15T15:11:18;2.30;;;1.20;;
20697;SDS011;10508;50.956;4.640;2022-11-15T15:13:48;4.03;;;0.90;;
20697;SDS011;10508;50.956;4.640;2022-11-15T15:16:13;1.70;;;0.75;;
20697;SDS011;10508;50.956;4.640;2022-11-15T15:18:39;1.25;;;0.90;;
20697;SDS011;10508;50.956;4.640;2022-11-15T15:21:11;1.85;;;0.90;;
20697;SDS011;10508;50.956;4.640;2022-11-15T15:23:51;2.03;;;0.90;;
20697;SDS011;10508;50.956;4.640;2022-11-15T15:26:19;1.10;;;0.80;;
20697;SDS011;10508;50.956;4.640;2022-11-15T15:28:45;1.90;;;0.80;;
20697;SDS011;10508;50.956;4.640;2022-11-15T15:31:11;2.45;;;1.08;;
20697;SDS011;10508;50.956;4.640;2022-11-15T15:33:37;2.53;;;1.58;;
20697;SDS011;10508;50.956;4.640;2022-11-15T15:36:02;6.78;;;2.10;;
20697;SDS011;10508;50.956;4.640;2022-11-15T15:38:28;1.75;;;0.98;;
20697;SDS011;10508;50.956;4.640;2022-11-15T15:40:54;1.42;;;0.90;;
20697;SDS011;10508;50.956;4.640;2022-11-15T15:43:20;1.85;;;1.35;;
20697;SDS011;10508;50.956;4.640;2022-11-15T15:45:45;2.72;;;1.00;;
20697;SDS011;10508;50.956;4.640;2022-11-15T15:48:15;3.42;;;0.88;;
20697;SDS011;10508;50.956;4.640;2022-11-15T15:50:42;2.13;;;0.90;;
20697;SDS011;10508;50.956;4.640;2022-11-15T15:53:08;2.22;;;1.02;;
20697;SDS011;10508;50.956;4.640;2022-11-15T15:55:35;2.33;;;1.08;;
20697;SDS011;10508;50.956;4.640;2022-11-15T15:58:02;1.75;;;1.00;;
20697;SDS011;10508;50.956;4.640;2022-11-15T16:00:28;7.97;;;1.30;;
20697;SDS011;10508;50.956;4.640;2022-11-15T16:02:54;2.78;;;1.20;;
20697;SDS011;10508;50.956;4.640;2022-11-15T16:05:20;2.70;;;1.27;;
20697;SDS011;10508;50.956;4.640;2022-11-15T16:07:46;2.60;;;1.20;;
20697;SDS011;10508;50.956;4.640;2022-11-15T16:12:41;2.58;;;1.35;;
20697;SDS011;10508;50.956;4.640;2022-11-15T16:15:07;3.58;;;1.45;;
20697;SDS011;10508;50.956;4.640;2022-11-15T16:17:34;4.93;;;1.20;;
20697;SDS011;10508;50.956;4.640;2022-11-15T16:20:01;3.22;;;1.63;;
20697;SDS011;10508;50.956;4.640;2022-11-15T16:22:27;5.10;;;1.50;;
20697;SDS011;10508;50.956;4.640;2022-11-15T16:24:54;2.50;;;1.30;;
20697;SDS011;10508;50.956;4.640;2022-11-15T16:27:20;1.65;;;1.27;;
20697;SDS011;10508;50.956;4.640;2022-11-15T16:29:46;8.25;;;1.30;;
20697;SDS011;10508;50.956;4.640;2022-11-15T16:32:12;2.63;;;1.20;;
20697;SDS011;10508;50.956;4.640;2022-11-15T16:34:38;2.60;;;1.42;;
20697;SDS011;10508;50.956;4.640;2022-11-15T16:37:04;4.50;;;1.55;;
20697;SDS011;10508;50.956;4.640;2022-11-15T16:39:31;5.28;;;1.70;;
20697;SDS011;10508;50.956;4.640;2022-11-15T16:41:57;2.55;;;1.38;;
20697;SDS011;10508;50.956;4.640;2022-11-15T16:44:23;4.75;;;1.73;;
20697;SDS011;10508;50.956;4.640;2022-11-15T16:46:50;1.63;;;1.27;;
20697;SDS011;10508;50.956;4.640;2022-11-15T16:49:16;4.03;;;1.48;;
20697;SDS011;10508;50.956;4.640;2022-11-15T16:51:47;4.80;;;1.85;;
20697;SDS011;10508;50.956;4.640;2022-11-15T16:54:14;3.15;;;1.83;;
20697;SDS011;10508;50.956;4.640;2022-11-15T16:56:40;3.00;;;1.50;;
20697;SDS011;10508;50.956;4.640;2022-11-15T16:59:07;4.80;;;1.45;;
20697;SDS011;10508;50.956;4.640;2022-11-15T17:01:38;6.32;;;2.35;;
20697;SDS011;10508;50.956;4.640;2022-11-15T17:04:11;2.47;;;1.35;;
20697;SDS011;10508;50.956;4.640;2022-11-15T17:06:37;4.03;;;1.85;;
20697;SDS011;10508;50.956;4.640;2022-11-15T17:09:04;3.58;;;1.70;;
20697;SDS011;10508;50.956;4.640;2022-11-15T17:11:31;5.47;;;1.63;;
20697;SDS011;10508;50.956;4.640;2022-11-15T17:13:57;3.25;;;2.03;;
20697;SDS011;10508;50.956;4.640;2022-11-15T17:16:23;2.88;;;1.67;;
20697;SDS011;10508;50.956;4.640;2022-11-15T17:18:50;7.57;;;1.88;;
20697;SDS011;10508;50.956;4.640;2022-11-15T17:21:17;7.07;;;1.73;;
20697;SDS011;10508;50.956;4.640;2022-11-15T17:23:45;4.40;;;1.88;;
20697;SDS011;10508;50.956;4.640;2022-11-15T17:26:11;4.20;;;2.08;;
20697;SDS011;10508;50.956;4.640;2022-11-15T17:28:39;2.75;;;1.35;;
20697;SDS011;10508;50.956;4.640;2022-11-15T17:31:05;2.83;;;1.63;;